sensor_id;sensor_type;location;lat;lon;timestamp;P1;durP1;ratioP1;P2;durP2;ratioP2
2944;SDS011;1482;51.398;7.128;2023-01-10T00:00:36;15.23;;;8.20;;
2944;SDS011;1482;51.398;7.128;2023-01-10T00:03:03;18.80;;;9.57;;
2944;SDS011;1482;51.398;7.128;2023-01-10T00:05:30;19.17;;;8.57;;
2944;SDS011;1482;51.398;7.128;2023-01-10T00:07:55;16.63;;;8.90;;
2944;SDS011;1482;51.398;7.128;2023-01-10T00:10:22;12.33;;;7.70;;
2944;SDS011;1482;51.398;7.128;2023-01-10T00:12:48;14.10;;;8.70;;
2944;SDS011;1482;51.398;7.128;2023-01-10T00:15:33;17.93;;;8.30;;
2944;SDS011;1482;51.398;7.128;2023-01-10T00:18:00;14.90;;;7.63;;
2944;SDS011;1482;51.398;7.128;2023-01-10T00:20:25;28.03;;;8.57;;
2944;SDS011;1482;51.398;7.128;2023-01-10T00:22:51;13.30;;;7.03;;
2944;SDS011;1482;51.398;7.128;2023-01-10T00:25:16;20.93;;;8.80;;
2944;SDS011;1482;51.398;7.128;2023-01-10T00:27:45;17.00;;;8.00;;
2944;SDS011;1482;51.398;7.128;2023-01-10T00:30:14;12.87;;;6.87;;
2944;SDS011;1482;51.398;7.128;2023-01-10T00:32:41;17.13;;;7.37;;
2944;SDS011;1482;51.398;7.128;2023-01-10T00:35:08;17.30;;;8.27;;
2944;SDS011;1482;51.398;7.128;2023-01-10T00:37:34;19.40;;;7.43;;
2944;SDS011;1482;51.398;7.128;2023-01-10T00:40:00;15.90;;;7.43;;
2944;SDS011;1482;51.398;7.128;2023-01-10T00:42:25;19.73;;;7.77;;
2944;SDS011;1482;51.398;7.128;2023-01-10T00:45:10;13.30;;;6.10;;
2944;SDS011;1482;51.398;7.128;2023-01-10T00:47:36;13.17;;;5.77;;
2944;SDS011;1482;51.398;7.128;2023-01-10T00:50:02;16.00;;;6.57;;
2944;SDS011;1482;51.398;7.128;2023-01-10T00:52:32;11.83;;;6.37;;
2944;SDS011;1482;51.398;7.128;2023-01-10T00:54:58;16.23;;;7.83;;
2944;SDS011;1482;51.398;7.128;2023-01-10T00:57:23;16.27;;;6.43;;
2944;SDS011;1482;51.398;7.128;2023-01-10T00:59:49;23.73;;;8.87;;
2944;SDS011;1482;51.398;7.128;2023-01-10T01:02:15;12.70;;;6.90;;
2944;SDS011;1482;51.398;7.128;2023-01-10T01:04:40;21.10;;;7.33;;
2944;SDS011;1482;51.398;7.128;2023-01-10T01:07:05;15.00;;;6.53;;
2944;SDS011;1482;51.398;7.128;2023-01-10T01:09:31;10.90;;;7.07;;
2944;SDS011;1482;51.398;7.128;2023-01-10T01:11:57;14.17;;;7.80;;
2944;SDS011;1482;51.398;7.128;2023-01-10T01:14:23;13.47;;;6.23;;
2944;SDS011;1482;51.398;7.128;2023-01-10T01:16:48;11.87;;;5.90;;
2944;SDS011;1482;51.398;7.128;2023-01-10T01:19:14;9.83;;;6.63;;
2944;SDS011;1482;51.398;7.128;2023-01-10T01:21:40;11.77;;;6.10;;
2944;SDS011;1482;51.398;7.128;2023-01-10T01:24:05;14.47;;;6.97;;
2944;SDS011;1482;51.398;7.128;2023-01-10T01:26:33;13.80;;;6.70;;
2944;SDS011;1482;51.398;7.128;2023-01-10T01:28:59;20.20;;;6.40;;
2944;SDS011;1482;51.398;7.128;2023-01-10T01:31:25;14.90;;;4.87;;
2944;SDS011;1482;51.398;7.128;2023-01-10T01:33:50;8.30;;;5.90;;
2944;SDS011;1482;51.398;7.128;2023-01-10T01:36:16;20.97;;;6.10;;
2944;SDS011;1482;51.398;7.128;2023-01-10T01:38:41;10.10;;;4.13;;
2944;SDS011;1482;51.398;7.128;2023-01-10T01:41:07;10.27;;;5.63;;
2944;SDS011;1482;51.398;7.128;2023-01-10T01:46:41;12.07;;;4.60;;
2944;SDS011;1482;51.398;7.128;2023-01-10T01:49:15;15.83;;;5.60;;
2944;SDS011;1482;51.398;7.128;2023-01-10T01:51:45;10.93;;;5.43;;
2944;SDS011;1482;51.398;7.128;2023-01-10T01:54:13;12.23;;;4.03;;
2944;SDS011;1482;51.398;7.128;2023-01-10T01:56:40;12.03;;;4.63;;
2944;SDS011;1482;51.398;7.128;2023-01-10T02:01:45;6.83;;;4.33;;
2944;SDS011;1482;51.398;7.128;2023-01-10T02:04:21;13.03;;;4.43;;
2944;SDS011;1482;51.398;7.128;2023-01-10T02:06:52;5.23;;;3.63;;
2944;SDS011;1482;51.398;7.128;2023-01-10T02:11:51;13.87;;;4.17;;
2944;SDS011;1482;51.398;7.128;2023-01-10T02:14:18;15.10;;;4.17;;
2944;SDS011;1482;51.398;7.128;2023-01-10T02:16:46;7.77;;;3.83;;
2944;SDS011;1482;51.398;7.128;2023-01-10T02:19:36;24.70;;;4.00;;
2944;SDS011;1482;51.398;7.128;2023-01-10T02:25:26;7.67;;;3.27;;
2944;SDS011;1482;51.398;7.128;2023-01-10T02:28:29;9.47;;;3.13;;
2944;SDS011;1482;51.398;7.128;2023-01-10T02:33:46;10.87;;;2.80;;
2944;SDS011;1482;51.398;7.128;2023-01-10T02:39:20;13.40;;;2.93;;
2944;SDS011;1482;51.398;7.128;2023-01-10T02:42:10;18.63;;;4.03;;
2944;SDS011;1482;51.398;7.128;2023-01-10T02:44:50;7.40;;;3.10;;
2944;SDS011;1482;51.398;7.128;2023-01-10T02:47:24;16.97;;;3.57;;
2944;SDS011;1482;51.398;7.128;2023-01-10T02:49:50;9.83;;;3.33;;
2944;SDS011;1482;51.398;7.128;2023-01-10T02:52:17;15.03;;;3.17;;
2944;SDS011;1482;51.398;7.128;2023-01-10T02:54:48;17.00;;;3.47;;
2944;SDS011;1482;51.398;7.128;2023-01-10T02:57:31;11.83;;;2.60;;
2944;SDS011;1482;51.398;7.128;2023-01-10T03:02:42;21.13;;;3.60;;
2944;SDS011;1482;51.398;7.128;2023-01-10T03:08:37;18.23;;;2.70;;
2944;SDS011;1482;51.398;7.128;2023-01-10T03:11:26;4.90;;;2.50;;
2944;SDS011;1482;51.398;7.128;2023-01-10T03:16:41;13.83;;;4.23;;
2944;SDS011;1482;51.398;7.128;2023-01-10T03:19:12;14.20;;;3.67;;
2944;SDS011;1482;51.398;7.128;2023-01-10T03:21:45;19.40;;;4.63;;
2944;SDS011;1482;51.398;7.128;2023-01-10T03:24:15;19.53;;;3.60;;
2944;SDS011;1482;51.398;7.128;2023-01-10T03:26:46;13.03;;;3.97;;
2944;SDS011;1482;51.398;7.128;2023-01-10T03:29:31;14.20;;;3.47;;
2944;SDS011;1482;51.398;7.128;2023-01-10T03:32:04;15.90;;;4.30;;
2944;SDS011;1482;51.398;7.128;2023-01-10T03:34:31;11.10;;;3.90;;
2944;SDS011;1482;51.398;7.128;2023-01-10T03:42:04;12.97;;;4.00;;
2944;SDS011;1482;51.398;7.128;2023-01-10T03:44:37;8.83;;;4.00;;
2944;SDS011;1482;51.398;7.128;2023-01-10T03:49:57;6.80;;;3.03;;
2944;SDS011;1482;51.398;7.128;2023-01-10T03:52:30;9.93;;;3.70;;
2944;SDS011;1482;51.398;7.128;2023-01-10T03:54:58;11.90;;;4.13;;
2944;SDS011;1482;51.398;7.128;2023-01-10T03:57:25;11.00;;;3.47;;
2944;SDS011;1482;51.398;7.128;2023-01-10T03:59:54;10.93;;;4.07;;
2944;SDS011;1482;51.398;7.128;2023-01-10T04:02:24;17.77;;;4.40;;
2944;SDS011;1482;51.398;7.128;2023-01-10T04:04:51;11.13;;;3.60;;
2944;SDS011;1482;51.398;7.128;2023-01-10T04:07:17;15.80;;;4.10;;
2944;SDS011;1482;51.398;7.128;2023-01-10T04:09:42;13.87;;;4.93;;
2944;SDS011;1482;51.398;7.128;2023-01-10T04:12:08;14.27;;;3.87;;
2944;SDS011;1482;51.398;7.128;2023-01-10T04:14:33;26.67;;;3.97;;
2944;SDS011;1482;51.398;7.128;2023-01-10T04:16:59;7.17;;;2.57;;
2944;SDS011;1482;51.398;7.128;2023-01-10T04:19:25;9.90;;;3.17;;
2944;SDS011;1482;51.398;7.128;2023-01-10T04:21:50;9.47;;;4.40;;
2944;SDS011;1482;51.398;7.128;2023-01-10T04:24:16;15.43;;;4.53;;
2944;SDS011;1482;51.398;7.128;2023-01-10T04:26:41;16.43;;;3.83;;
2944;SDS011;1482;51.398;7.128;2023-01-10T04:29:07;13.20;;;4.80;;
2944;SDS011;1482;51.398;7.128;2023-01-10T04:31:32;12.27;;;4.57;;
2944;SDS011;1482;51.398;7.128;2023-01-10T04:33:58;14.50;;;4.80;;
2944;SDS011;1482;51.398;7.128;2023-01-10T04:36:24;15.80;;;5.07;;
2944;SDS011;1482;51.398;7.128;2023-01-10T04:38:49;14.90;;;5.07;;
2944;SDS011;1482;51.398;7.128;2023-01-10T04:41:15;14.80;;;4.60;;
2944;SDS011;1482;51.398;7.128;2023-01-10T04:43:41;15.63;;;7.20;;
2944;SDS011;1482;51.398;7.128;2023-01-10T04:46:06;9.70;;;4.50;;
2944;SDS011;1482;51.398;7.128;2023-01-10T04:48:32;22.33;;;4.30;;
2944;SDS011;1482;51.398;7.128;2023-01-10T04:50:58;13.47;;;4.60;;
2944;SDS011;1482;51.398;7.128;2023-01-10T04:53:24;16.33;;;4.17;;
2944;SDS011;1482;51.398;7.128;2023-01-10T04:55:49;12.97;;;4.63;;
2944;SDS011;1482;51.398;7.128;2023-01-10T04:58:15;8.33;;;3.50;;
2944;SDS011;1482;51.398;7.128;2023-01-10T05:00:40;11.17;;;4.00;;
2944;SDS011;1482;51.398;7.128;2023-01-10T05:03:06;17.03;;;3.87;;
2944;SDS011;1482;51.398;7.128;2023-01-10T05:05:31;18.53;;;4.13;;
2944;SDS011;1482;51.398;7.128;2023-01-10T05:07:57;12.47;;;4.27;;
2944;SDS011;1482;51.398;7.128;2023-01-10T05:10:23;20.30;;;6.37;;
2944;SDS011;1482;51.398;7.128;2023-01-10T05:12:48;8.37;;;3.17;;
2944;SDS011;1482;51.398;7.128;2023-01-10T05:15:14;21.13;;;4.80;;
2944;SDS011;1482;51.398;7.128;2023-01-10T05:17:39;12.60;;;3.90;;
2944;SDS011;1482;51.398;7.128;2023-01-10T05:20:05;10.77;;;3.67;;
2944;SDS011;1482;51.398;7.128;2023-01-10T05:22:32;10.40;;;3.70;;
2944;SDS011;1482;51.398;7.128;2023-01-10T05:24:57;16.43;;;3.90;;
2944;SDS011;1482;51.398;7.128;2023-01-10T05:27:23;17.60;;;4.50;;
2944;SDS011;1482;51.398;7.128;2023-01-10T05:29:49;16.47;;;3.50;;
2944;SDS011;1482;51.398;7.128;2023-01-10T05:32:14;12.33;;;4.13;;
2944;SDS011;1482;51.398;7.128;2023-01-10T05:34:40;9.67;;;3.73;;
2944;SDS011;1482;51.398;7.128;2023-01-10T05:37:06;11.67;;;4.17;;
2944;SDS011;1482;51.398;7.128;2023-01-10T05:39:31;16.83;;;4.17;;
2944;SDS011;1482;51.398;7.128;2023-01-10T05:41:57;21.77;;;4.93;;
2944;SDS011;1482;51.398;7.128;2023-01-10T05:44:22;14.53;;;4.10;;
2944;SDS011;1482;51.398;7.128;2023-01-10T05:46:48;14.17;;;5.03;;
2944;SDS011;1482;51.398;7.128;2023-01-10T05:49:13;18.13;;;4.27;;
2944;SDS011;1482;51.398;7.128;2023-01-10T05:51:39;17.00;;;3.77;;
2944;SDS011;1482;51.398;7.128;2023-01-10T05:54:06;10.20;;;3.43;;
2944;SDS011;1482;51.398;7.128;2023-01-10T05:56:31;16.20;;;4.47;;
2944;SDS011;1482;51.398;7.128;2023-01-10T05:58:57;10.47;;;3.93;;
2944;SDS011;1482;51.398;7.128;2023-01-10T06:01:23;15.60;;;5.20;;
2944;SDS011;1482;51.398;7.128;2023-01-10T06:03:49;15.33;;;4.70;;
2944;SDS011;1482;51.398;7.128;2023-01-10T06:06:14;17.00;;;4.33;;
2944;SDS011;1482;51.398;7.128;2023-01-10T06:08:40;10.50;;;4.73;;
2944;SDS011;1482;51.398;7.128;2023-01-10T06:11:06;17.47;;;5.33;;
2944;SDS011;1482;51.398;7.128;2023-01-10T06:13:31;18.00;;;5.53;;
2944;SDS011;1482;51.398;7.128;2023-01-10T06:15:57;17.60;;;4.70;;
2944;SDS011;1482;51.398;7.128;2023-01-10T06:18:23;25.90;;;5.00;;
2944;SDS011;1482;51.398;7.128;2023-01-10T06:20:49;16.20;;;5.30;;
2944;SDS011;1482;51.398;7.128;2023-01-10T06:23:14;13.20;;;3.87;;
2944;SDS011;1482;51.398;7.128;2023-01-10T06:25:40;15.73;;;3.87;;
2944;SDS011;1482;51.398;7.128;2023-01-10T06:28:09;30.03;;;5.23;;
2944;SDS011;1482;51.398;7.128;2023-01-10T06:30:37;16.83;;;5.13;;
2944;SDS011;1482;51.398;7.128;2023-01-10T06:33:04;17.23;;;5.63;;
2944;SDS011;1482;51.398;7.128;2023-01-10T06:35:31;20.57;;;4.77;;
2944;SDS011;1482;51.398;7.128;2023-01-10T06:37:57;17.40;;;4.83;;
2944;SDS011;1482;51.398;7.128;2023-01-10T06:40:23;20.77;;;4.70;;
2944;SDS011;1482;51.398;7.128;2023-01-10T06:42:49;18.50;;;3.83;;
2944;SDS011;1482;51.398;7.128;2023-01-10T06:45:15;20.67;;;3.90;;
2944;SDS011;1482;51.398;7.128;2023-01-10T06:47:41;21.20;;;5.37;;
2944;SDS011;1482;51.398;7.128;2023-01-10T06:50:07;17.30;;;4.77;;
2944;SDS011;1482;51.398;7.128;2023-01-10T06:52:33;24.57;;;4.70;;
2944;SDS011;1482;51.398;7.128;2023-01-10T06:54:59;18.30;;;4.13;;
2944;SDS011;1482;51.398;7.128;2023-01-10T06:57:24;18.30;;;4.67;;
2944;SDS011;1482;51.398;7.128;2023-01-10T06:59:52;22.83;;;4.87;;
2944;SDS011;1482;51.398;7.128;2023-01-10T07:02:18;20.27;;;3.93;;
2944;SDS011;1482;51.398;7.128;2023-01-10T07:04:43;20.90;;;6.90;;
2944;SDS011;1482;51.398;7.128;2023-01-10T07:07:09;11.70;;;4.17;;
2944;SDS011;1482;51.398;7.128;2023-01-10T07:09:35;14.50;;;5.50;;
2944;SDS011;1482;51.398;7.128;2023-01-10T07:12:00;13.60;;;5.50;;
2944;SDS011;1482;51.398;7.128;2023-01-10T07:14:26;23.40;;;5.70;;
2944;SDS011;1482;51.398;7.128;2023-01-10T07:16:51;20.00;;;6.83;;
2944;SDS011;1482;51.398;7.128;2023-01-10T07:19:17;24.43;;;5.87;;
2944;SDS011;1482;51.398;7.128;2023-01-10T07:21:43;15.20;;;5.27;;
2944;SDS011;1482;51.398;7.128;2023-01-10T07:24:09;12.37;;;5.17;;
2944;SDS011;1482;51.398;7.128;2023-01-10T07:26:35;21.60;;;4.80;;
2944;SDS011;1482;51.398;7.128;2023-01-10T07:29:00;15.90;;;4.83;;
2944;SDS011;1482;51.398;7.128;2023-01-10T07:31:26;23.03;;;5.67;;
2944;SDS011;1482;51.398;7.128;2023-01-10T07:33:52;19.93;;;5.37;;
2944;SDS011;1482;51.398;7.128;2023-01-10T07:36:18;20.83;;;7.43;;
2944;SDS011;1482;51.398;7.128;2023-01-10T07:38:43;20.60;;;6.20;;
2944;SDS011;1482;51.398;7.128;2023-01-10T07:41:09;19.60;;;5.63;;
2944;SDS011;1482;51.398;7.128;2023-01-10T07:43:35;23.83;;;4.93;;
2944;SDS011;1482;51.398;7.128;2023-01-10T07:46:01;20.07;;;5.83;;
2944;SDS011;1482;51.398;7.128;2023-01-10T07:48:28;18.90;;;5.43;;
2944;SDS011;1482;51.398;7.128;2023-01-10T07:50:54;26.17;;;6.83;;
2944;SDS011;1482;51.398;7.128;2023-01-10T07:53:21;25.07;;;6.50;;
2944;SDS011;1482;51.398;7.128;2023-01-10T07:55:47;27.67;;;6.07;;
2944;SDS011;1482;51.398;7.128;2023-01-10T07:58:12;16.20;;;6.27;;
2944;SDS011;1482;51.398;7.128;2023-01-10T08:00:38;24.50;;;6.63;;
2944;SDS011;1482;51.398;7.128;2023-01-10T08:03:04;34.37;;;6.53;;
2944;SDS011;1482;51.398;7.128;2023-01-10T08:05:30;21.00;;;5.77;;
2944;SDS011;1482;51.398;7.128;2023-01-10T08:07:57;25.03;;;6.90;;
2944;SDS011;1482;51.398;7.128;2023-01-10T08:10:32;21.83;;;6.03;;
2944;SDS011;1482;51.398;7.128;2023-01-10T08:12:58;19.43;;;5.63;;
2944;SDS011;1482;51.398;7.128;2023-01-10T08:15:24;27.07;;;8.30;;
2944;SDS011;1482;51.398;7.128;2023-01-10T08:17:49;23.60;;;6.30;;
2944;SDS011;1482;51.398;7.128;2023-01-10T08:20:15;24.93;;;6.50;;
2944;SDS011;1482;51.398;7.128;2023-01-10T08:22:40;18.23;;;6.43;;
2944;SDS011;1482;51.398;7.128;2023-01-10T08:25:06;29.07;;;7.70;;
2944;SDS011;1482;51.398;7.128;2023-01-10T08:27:32;19.80;;;7.33;;
2944;SDS011;1482;51.398;7.128;2023-01-10T08:29:58;21.90;;;7.53;;
2944;SDS011;1482;51.398;7.128;2023-01-10T08:32:23;24.53;;;8.07;;
2944;SDS011;1482;51.398;7.128;2023-01-10T08:34:49;33.73;;;6.23;;
2944;SDS011;1482;51.398;7.128;2023-01-10T08:37:14;26.93;;;5.40;;
2944;SDS011;1482;51.398;7.128;2023-01-10T08:39:40;17.70;;;5.77;;
2944;SDS011;1482;51.398;7.128;2023-01-10T08:42:06;15.93;;;6.00;;
2944;SDS011;1482;51.398;7.128;2023-01-10T08:44:31;25.63;;;6.13;;
2944;SDS011;1482;51.398;7.128;2023-01-10T08:46:57;23.30;;;6.40;;
2944;SDS011;1482;51.398;7.128;2023-01-10T08:49:22;13.30;;;4.80;;
2944;SDS011;1482;51.398;7.128;2023-01-10T08:51:48;23.87;;;5.03;;
2944;SDS011;1482;51.398;7.128;2023-01-10T08:54:14;15.23;;;5.40;;
2944;SDS011;1482;51.398;7.128;2023-01-10T08:56:39;22.40;;;5.50;;
2944;SDS011;1482;51.398;7.128;2023-01-10T08:59:05;28.30;;;5.47;;
2944;SDS011;1482;51.398;7.128;2023-01-10T09:01:32;23.63;;;4.70;;
2944;SDS011;1482;51.398;7.128;2023-01-10T09:03:58;24.30;;;6.13;;
2944;SDS011;1482;51.398;7.128;2023-01-10T09:06:23;20.03;;;6.47;;
2944;SDS011;1482;51.398;7.128;2023-01-10T09:08:49;20.83;;;3.90;;
2944;SDS011;1482;51.398;7.128;2023-01-10T09:11:15;22.63;;;5.57;;
2944;SDS011;1482;51.398;7.128;2023-01-10T09:13:40;17.40;;;4.33;;
2944;SDS011;1482;51.398;7.128;2023-01-10T09:16:06;9.30;;;4.50;;
2944;SDS011;1482;51.398;7.128;2023-01-10T09:18:33;18.93;;;4.60;;
2944;SDS011;1482;51.398;7.128;2023-01-10T09:20:58;15.13;;;4.50;;
2944;SDS011;1482;51.398;7.128;2023-01-10T09:23:24;23.37;;;6.20;;
2944;SDS011;1482;51.398;7.128;2023-01-10T09:25:51;28.30;;;5.30;;
2944;SDS011;1482;51.398;7.128;2023-01-10T09:28:18;19.10;;;4.00;;
2944;SDS011;1482;51.398;7.128;2023-01-10T09:30:45;21.07;;;5.90;;
2944;SDS011;1482;51.398;7.128;2023-01-10T09:33:11;15.83;;;5.37;;
2944;SDS011;1482;51.398;7.128;2023-01-10T09:35:38;28.70;;;6.70;;
2944;SDS011;1482;51.398;7.128;2023-01-10T09:38:05;24.10;;;6.10;;
2944;SDS011;1482;51.398;7.128;2023-01-10T09:43:50;17.30;;;4.40;;
2944;SDS011;1482;51.398;7.128;2023-01-10T09:46:41;22.27;;;5.37;;
2944;SDS011;1482;51.398;7.128;2023-01-10T09:49:33;20.23;;;5.10;;
2944;SDS011;1482;51.398;7.128;2023-01-10T09:52:16;24.93;;;5.67;;
2944;SDS011;1482;51.398;7.128;2023-01-10T09:54:47;24.43;;;5.47;;
2944;SDS011;1482;51.398;7.128;2023-01-10T09:57:16;19.30;;;4.80;;
2944;SDS011;1482;51.398;7.128;2023-01-10T09:59:44;28.53;;;5.10;;
2944;SDS011;1482;51.398;7.128;2023-01-10T10:02:22;16.37;;;5.27;;
2944;SDS011;1482;51.398;7.128;2023-01-10T10:05:06;17.10;;;4.23;;
2944;SDS011;1482;51.398;7.128;2023-01-10T10:07:53;20.23;;;6.17;;
2944;SDS011;1482;51.398;7.128;2023-01-10T10:10:23;16.30;;;6.10;;
2944;SDS011;1482;51.398;7.128;2023-01-10T10:13:32;16.00;;;5.80;;
2944;SDS011;1482;51.398;7.128;2023-01-10T10:18:54;11.13;;;4.83;;
2944;SDS011;1482;51.398;7.128;2023-01-10T10:21:35;18.00;;;4.50;;
2944;SDS011;1482;51.398;7.128;2023-01-10T10:26:57;16.90;;;4.33;;
2944;SDS011;1482;51.398;7.128;2023-01-10T10:35:07;15.60;;;4.33;;
2944;SDS011;1482;51.398;7.128;2023-01-10T10:37:44;14.50;;;4.10;;
2944;SDS011;1482;51.398;7.128;2023-01-10T10:40:21;18.73;;;6.00;;
2944;SDS011;1482;51.398;7.128;2023-01-10T10:42:51;9.83;;;4.70;;
2944;SDS011;1482;51.398;7.128;2023-01-10T10:47:52;11.93;;;4.30;;
2944;SDS011;1482;51.398;7.128;2023-01-10T10:50:31;21.67;;;4.57;;
2944;SDS011;1482;51.398;7.128;2023-01-10T10:53:02;19.50;;;4.60;;
2944;SDS011;1482;51.398;7.128;2023-01-10T10:55:30;19.70;;;5.13;;
2944;SDS011;1482;51.398;7.128;2023-01-10T10:57:58;15.53;;;4.90;;
2944;SDS011;1482;51.398;7.128;2023-01-10T11:00:24;14.33;;;3.90;;
2944;SDS011;1482;51.398;7.128;2023-01-10T11:02:52;31.53;;;4.97;;
2944;SDS011;1482;51.398;7.128;2023-01-10T11:05:40;17.57;;;4.57;;
2944;SDS011;1482;51.398;7.128;2023-01-10T11:08:09;9.77;;;4.00;;
2944;SDS011;1482;51.398;7.128;2023-01-10T11:10:43;17.47;;;4.10;;
2944;SDS011;1482;51.398;7.128;2023-01-10T11:16:05;16.67;;;4.00;;
2944;SDS011;1482;51.398;7.128;2023-01-10T11:18:32;10.50;;;3.60;;
2944;SDS011;1482;51.398;7.128;2023-01-10T11:20:59;15.73;;;5.90;;
2944;SDS011;1482;51.398;7.128;2023-01-10T11:26:06;16.30;;;3.60;;
2944;SDS011;1482;51.398;7.128;2023-01-10T11:29:02;12.87;;;4.33;;
2944;SDS011;1482;51.398;7.128;2023-01-10T11:31:32;25.03;;;5.40;;
2944;SDS011;1482;51.398;7.128;2023-01-10T11:34:05;22.13;;;4.67;;
2944;SDS011;1482;51.398;7.128;2023-01-10T11:39:20;17.57;;;4.00;;
2944;SDS011;1482;51.398;7.128;2023-01-10T11:41:46;19.10;;;6.17;;
2944;SDS011;1482;51.398;7.128;2023-01-10T11:44:20;12.97;;;4.23;;
2944;SDS011;1482;51.398;7.128;2023-01-10T11:46:47;20.50;;;4.27;;
2944;SDS011;1482;51.398;7.128;2023-01-10T11:49:14;14.50;;;3.60;;
2944;SDS011;1482;51.398;7.128;2023-01-10T11:52:02;19.00;;;4.00;;
2944;SDS011;1482;51.398;7.128;2023-01-10T11:54:40;16.77;;;4.33;;
2944;SDS011;1482;51.398;7.128;2023-01-10T11:57:07;20.13;;;4.83;;
2944;SDS011;1482;51.398;7.128;2023-01-10T11:59:55;17.90;;;4.20;;
2944;SDS011;1482;51.398;7.128;2023-01-10T12:04:51;30.43;;;4.80;;
2944;SDS011;1482;51.398;7.128;2023-01-10T12:07:20;23.10;;;5.50;;
2944;SDS011;1482;51.398;7.128;2023-01-10T12:09:53;14.23;;;3.73;;
2944;SDS011;1482;51.398;7.128;2023-01-10T12:12:24;11.07;;;4.73;;
2944;SDS011;1482;51.398;7.128;2023-01-10T12:14:55;20.57;;;4.80;;
2944;SDS011;1482;51.398;7.128;2023-01-10T12:17:29;17.23;;;4.40;;
2944;SDS011;1482;51.398;7.128;2023-01-10T12:20:00;20.20;;;6.23;;
2944;SDS011;1482;51.398;7.128;2023-01-10T12:22:40;17.83;;;7.07;;
2944;SDS011;1482;51.398;7.128;2023-01-10T12:25:19;20.80;;;5.27;;
2944;SDS011;1482;51.398;7.128;2023-01-10T12:27:56;28.47;;;4.50;;
2944;SDS011;1482;51.398;7.128;2023-01-10T12:32:58;19.37;;;4.80;;
2944;SDS011;1482;51.398;7.128;2023-01-10T12:38:18;13.93;;;4.17;;
2944;SDS011;1482;51.398;7.128;2023-01-10T12:41:22;21.27;;;4.60;;
2944;SDS011;1482;51.398;7.128;2023-01-10T12:44:13;16.93;;;4.67;;
2944;SDS011;1482;51.398;7.128;2023-01-10T12:46:50;13.23;;;4.47;;
2944;SDS011;1482;51.398;7.128;2023-01-10T12:49:52;10.93;;;3.83;;
2944;SDS011;1482;51.398;7.128;2023-01-10T12:52:34;15.63;;;4.57;;
2944;SDS011;1482;51.398;7.128;2023-01-10T12:55:15;13.30;;;4.80;;
2944;SDS011;1482;51.398;7.128;2023-01-10T12:57:43;14.23;;;4.13;;
2944;SDS011;1482;51.398;7.128;2023-01-10T13:00:22;21.70;;;2.97;;
2944;SDS011;1482;51.398;7.128;2023-01-10T13:02:54;19.53;;;3.90;;
2944;SDS011;1482;51.398;7.128;2023-01-10T13:05:25;17.60;;;5.67;;
2944;SDS011;1482;51.398;7.128;2023-01-10T13:07:59;26.17;;;3.13;;
2944;SDS011;1482;51.398;7.128;2023-01-10T13:10:30;18.83;;;4.00;;
2944;SDS011;1482;51.398;7.128;2023-01-10T13:13:04;10.13;;;4.30;;
2944;SDS011;1482;51.398;7.128;2023-01-10T13:15:40;15.43;;;2.93;;
2944;SDS011;1482;51.398;7.128;2023-01-10T13:18:23;18.03;;;3.00;;
2944;SDS011;1482;51.398;7.128;2023-01-10T13:23:32;9.63;;;3.03;;
2944;SDS011;1482;51.398;7.128;2023-01-10T13:26:07;12.87;;;3.77;;
2944;SDS011;1482;51.398;7.128;2023-01-10T13:28:34;9.77;;;2.93;;
2944;SDS011;1482;51.398;7.128;2023-01-10T13:31:03;13.53;;;3.43;;
2944;SDS011;1482;51.398;7.128;2023-01-10T13:33:33;11.17;;;3.47;;
2944;SDS011;1482;51.398;7.128;2023-01-10T13:36:11;17.60;;;3.73;;
2944;SDS011;1482;51.398;7.128;2023-01-10T13:41:14;17.97;;;3.53;;
2944;SDS011;1482;51.398;7.128;2023-01-10T13:51:25;12.90;;;2.83;;
2944;SDS011;1482;51.398;7.128;2023-01-10T13:54:01;12.90;;;3.87;;
2944;SDS011;1482;51.398;7.128;2023-01-10T13:59:01;7.47;;;3.00;;
2944;SDS011;1482;51.398;7.128;2023-01-10T14:01:41;7.57;;;2.40;;
2944;SDS011;1482;51.398;7.128;2023-01-10T14:04:30;16.07;;;3.03;;
2944;SDS011;1482;51.398;7.128;2023-01-10T14:07:00;13.47;;;2.80;;
2944;SDS011;1482;51.398;7.128;2023-01-10T14:09:45;11.77;;;3.17;;
2944;SDS011;1482;51.398;7.128;2023-01-10T14:12:16;17.00;;;3.70;;
2944;SDS011;1482;51.398;7.128;2023-01-10T14:14:48;13.00;;;3.90;;
2944;SDS011;1482;51.398;7.128;2023-01-10T14:19:44;13.90;;;3.90;;
2944;SDS011;1482;51.398;7.128;2023-01-10T14:25:18;10.37;;;3.10;;
2944;SDS011;1482;51.398;7.128;2023-01-10T14:27:47;12.00;;;2.60;;
2944;SDS011;1482;51.398;7.128;2023-01-10T14:33:06;13.73;;;3.73;;
2944;SDS011;1482;51.398;7.128;2023-01-10T14:35:42;11.77;;;3.53;;
2944;SDS011;1482;51.398;7.128;2023-01-10T14:38:16;7.63;;;3.27;;
2944;SDS011;1482;51.398;7.128;2023-01-10T14:40:51;21.17;;;2.90;;
2944;SDS011;1482;51.398;7.128;2023-01-10T14:43:24;8.37;;;2.43;;
2944;SDS011;1482;51.398;7.128;2023-01-10T14:48:23;28.47;;;3.90;;
2944;SDS011;1482;51.398;7.128;2023-01-10T14:51:04;13.70;;;3.30;;
2944;SDS011;1482;51.398;7.128;2023-01-10T14:53:54;9.00;;;3.37;;
2944;SDS011;1482;51.398;7.128;2023-01-10T14:56:25;14.27;;;3.63;;
2944;SDS011;1482;51.398;7.128;2023-01-10T14:59:14;5.10;;;2.23;;
2944;SDS011;1482;51.398;7.128;2023-01-10T15:01:41;19.87;;;2.80;;
2944;SDS011;1482;51.398;7.128;2023-01-10T15:04:14;12.00;;;3.47;;
2944;SDS011;1482;51.398;7.128;2023-01-10T15:07:00;17.00;;;6.37;;
2944;SDS011;1482;51.398;7.128;2023-01-10T15:09:33;18.43;;;3.03;;
2944;SDS011;1482;51.398;7.128;2023-01-10T15:11:59;20.83;;;3.93;;
2944;SDS011;1482;51.398;7.128;2023-01-10T15:14:28;10.77;;;3.77;;
2944;SDS011;1482;51.398;7.128;2023-01-10T15:16:56;15.00;;;3.10;;
2944;SDS011;1482;51.398;7.128;2023-01-10T15:19:26;15.13;;;2.77;;
2944;SDS011;1482;51.398;7.128;2023-01-10T15:21:55;9.47;;;3.97;;
2944;SDS011;1482;51.398;7.128;2023-01-10T15:24:29;8.80;;;2.83;;
2944;SDS011;1482;51.398;7.128;2023-01-10T15:26:58;9.00;;;5.30;;
2944;SDS011;1482;51.398;7.128;2023-01-10T15:29:26;13.93;;;2.80;;
2944;SDS011;1482;51.398;7.128;2023-01-10T15:31:52;12.57;;;2.60;;
2944;SDS011;1482;51.398;7.128;2023-01-10T15:34:22;12.37;;;3.10;;
2944;SDS011;1482;51.398;7.128;2023-01-10T15:36:53;7.83;;;2.43;;
2944;SDS011;1482;51.398;7.128;2023-01-10T15:39:28;15.90;;;4.13;;
2944;SDS011;1482;51.398;7.128;2023-01-10T15:41:57;6.20;;;2.80;;
2944;SDS011;1482;51.398;7.128;2023-01-10T15:44:37;5.63;;;2.90;;
2944;SDS011;1482;51.398;7.128;2023-01-10T15:50:23;12.10;;;2.60;;
2944;SDS011;1482;51.398;7.128;2023-01-10T15:52:54;10.83;;;3.47;;
2944;SDS011;1482;51.398;7.128;2023-01-10T16:00:43;9.40;;;2.90;;
2944;SDS011;1482;51.398;7.128;2023-01-10T16:03:21;12.20;;;3.10;;
2944;SDS011;1482;51.398;7.128;2023-01-10T16:05:58;11.63;;;3.60;;
2944;SDS011;1482;51.398;7.128;2023-01-10T16:08:29;9.60;;;3.00;;
2944;SDS011;1482;51.398;7.128;2023-01-10T16:10:59;17.00;;;3.93;;
2944;SDS011;1482;51.398;7.128;2023-01-10T16:13:28;11.33;;;3.27;;
2944;SDS011;1482;51.398;7.128;2023-01-10T16:15:59;5.77;;;2.57;;
2944;SDS011;1482;51.398;7.128;2023-01-10T16:18:29;20.47;;;2.93;;
2944;SDS011;1482;51.398;7.128;2023-01-10T16:20:55;14.13;;;3.13;;
2944;SDS011;1482;51.398;7.128;2023-01-10T16:23:33;10.60;;;4.20;;
2944;SDS011;1482;51.398;7.128;2023-01-10T16:26:01;11.87;;;3.17;;
2944;SDS011;1482;51.398;7.128;2023-01-10T16:28:29;19.17;;;4.17;;
2944;SDS011;1482;51.398;7.128;2023-01-10T16:31:00;15.17;;;3.50;;
2944;SDS011;1482;51.398;7.128;2023-01-10T16:33:29;11.67;;;3.77;;
2944;SDS011;1482;51.398;7.128;2023-01-10T16:35:55;11.90;;;4.80;;
2944;SDS011;1482;51.398;7.128;2023-01-10T16:38:23;15.03;;;3.23;;
2944;SDS011;1482;51.398;7.128;2023-01-10T16:40:51;8.90;;;3.23;;
2944;SDS011;1482;51.398;7.128;2023-01-10T16:43:19;10.67;;;3.50;;
2944;SDS011;1482;51.398;7.128;2023-01-10T16:48:17;11.40;;;3.60;;
2944;SDS011;1482;51.398;7.128;2023-01-10T16:50:43;12.60;;;3.30;;
2944;SDS011;1482;51.398;7.128;2023-01-10T16:53:13;13.03;;;3.20;;
2944;SDS011;1482;51.398;7.128;2023-01-10T16:55:43;7.63;;;2.70;;
2944;SDS011;1482;51.398;7.128;2023-01-10T16:58:09;18.10;;;3.57;;
2944;SDS011;1482;51.398;7.128;2023-01-10T17:00:36;18.47;;;3.80;;
2944;SDS011;1482;51.398;7.128;2023-01-10T17:03:03;7.97;;;2.73;;